Time;durP1;ratioP1;P1;durP2;ratioP2;P2;SDS_P1;SDS_P2;PMS_P1;PMS_P2;Temp;Humidity;BMP_temperature;BMP_pressure;BME280_temperature;BME280_humidity;BME280_pressure;Samples;Min_cycle;Max_cycle;Signal;HPM_P1;HPM_P2
2021/10/31 00:00:10;;;;;;;2.22;2.03;;;;;;;;;;5052982;28;20608;-79
2021/10/31 00:02:39;;;;;;;2.20;2.00;;;;;;;;;;5048615;28;20199;-78
2021/10/31 00:05:08;;;;;;;2.58;2.38;;;;;;;;;;5049817;28;20206;-79
2021/10/31 00:07:35;;;;;;;2.63;2.28;;;;;;;;;;5050651;28;20200;-78
2021/10/31 00:10:02;;;;;;;2.05;1.85;;;;;;;;;;5050100;28;20219;-79
2021/10/31 00:12:29;;;;;;;2.10;1.90;;;;;;;;;;5049171;28;20734;-79
2021/10/31 00:14:56;;;;;;;3.08;2.30;;;;;;;;;;5050104;28;20664;-80
2021/10/31 00:17:23;;;;;;;2.40;2.05;;;;;;;;;;5049863;28;20561;-79
2021/10/31 00:19:51;;;;;;;2.50;2.30;;;;;;;;;;5049439;28;20563;-80
2021/10/31 00:22:19;;;;;;;2.25;2.05;;;;;;;;;;5047554;28;20195;-79
2021/10/31 00:24:46;;;;;;;2.08;1.88;;;;;;;;;;5049988;28;20564;-79
2021/10/31 00:27:13;;;;;;;2.42;2.22;;;;;;;;;;5051474;28;20599;-79
2021/10/31 00:29:40;;;;;;;2.63;2.40;;;;;;;;;;5053515;28;20215;-79
2021/10/31 00:32:08;;;;;;;2.88;2.20;;;;;;;;;;5045234;28;20199;-79
2021/10/31 00:34:35;;;;;;;1.90;1.80;;;;;;;;;;5047413;28;20191;-79
2021/10/31 00:37:02;;;;;;;2.28;2.08;;;;;;;;;;5049738;28;20215;-79
2021/10/31 00:39:30;;;;;;;2.00;1.73;;;;;;;;;;5059104;28;20678;-80
2021/10/31 00:41:58;;;;;;;2.20;1.83;;;;;;;;;;5051060;28;20572;-79
2021/10/31 00:44:25;;;;;;;2.58;1.83;;;;;;;;;;5045644;28;20207;-79
2021/10/31 00:46:52;;;;;;;1.88;1.77;;;;;;;;;;5044876;28;20645;-79
2021/10/31 00:49:19;;;;;;;2.47;2.20;;;;;;;;;;5050365;28;20202;-79
2021/10/31 00:51:47;;;;;;;2.28;2.00;;;;;;;;;;5050570;28;20223;-79
2021/10/31 00:54:14;;;;;;;2.28;2.08;;;;;;;;;;5048112;28;20207;-79
2021/10/31 00:56:43;;;;;;;3.38;2.70;;;;;;;;;;5052245;28;20203;-79
2021/10/31 00:59:10;;;;;;;2.28;2.10;;;;;;;;;;5052546;28;20687;-79
2021/10/31 01:01:37;;;;;;;2.17;1.98;;;;;;;;;;5052848;28;20560;-79
2021/10/31 01:04:05;;;;;;;1.90;1.80;;;;;;;;;;5049379;28;20572;-80
2021/10/31 01:06:46;;;;;;;2.25;2.08;;;;;;;;;;5049126;28;20293;-79
2021/10/31 01:09:17;;;;;;;2.60;2.00;;;;;;;;;;5049918;28;20698;-80
2021/10/31 01:11:51;;;;;;;1.80;1.70;;;;;;;;;;5046956;28;20212;-80
2021/10/31 01:14:37;;;;;;;2.00;1.80;;;;;;;;;;5048299;28;20274;-80
2021/10/31 01:17:12;;;;;;;2.00;1.80;;;;;;;;;;5048441;28;20199;-80
2021/10/31 01:19:58;;;;;;;2.58;2.38;;;;;;;;;;5048350;28;20195;-80
2021/10/31 01:22:33;;;;;;;1.92;1.60;;;;;;;;;;5046887;28;20203;-80
2021/10/31 01:25:04;;;;;;;2.05;1.70;;;;;;;;;;5046856;28;20202;-79
2021/10/31 01:27:46;;;;;;;2.40;2.17;;;;;;;;;;5048862;28;20546;-80
2021/10/31 01:30:16;;;;;;;1.70;1.60;;;;;;;;;;5051800;28;20683;-80
2021/10/31 01:32:50;;;;;;;2.38;1.98;;;;;;;;;;5048013;28;20207;-80
2021/10/31 01:35:24;;;;;;;1.92;1.80;;;;;;;;;;5048484;28;20197;-80
2021/10/31 01:37:56;;;;;;;2.20;2.00;;;;;;;;;;5049302;28;20240;-80
2021/10/31 01:40:28;;;;;;;2.22;1.98;;;;;;;;;;5047694;28;20202;-80
2021/10/31 01:43:04;;;;;;;2.33;2.13;;;;;;;;;;5050597;28;20184;-80
2021/10/31 01:45:38;;;;;;;1.88;1.77;;;;;;;;;;5049115;28;20651;-80
2021/10/31 01:48:08;;;;;;;2.50;2.28;;;;;;;;;;5047305;28;20206;-79
2021/10/31 01:50:39;;;;;;;2.35;2.15;;;;;;;;;;5047618;28;20238;-80
2021/10/31 01:56:11;;;;;;;3.67;2.15;;;;;;;;;;5055422;28;20183;-81
2021/10/31 01:58:41;;;;;;;3.03;2.40;;;;;;;;;;5045220;28;20196;-79
2021/10/31 02:01:10;;;;;;;2.03;1.83;;;;;;;;;;5055325;28;20286;-80
2021/10/31 02:03:38;;;;;;;2.30;2.10;;;;;;;;;;5049309;28;20234;-79
2021/10/31 02:06:05;;;;;;;3.50;2.28;;;;;;;;;;5044189;28;20203;-79
2021/10/31 02:08:35;;;;;;;2.25;2.15;;;;;;;;;;5048605;28;20583;-80
2021/10/31 02:11:03;;;;;;;2.35;1.70;;;;;;;;;;5048349;28;20227;-79
2021/10/31 02:13:30;;;;;;;2.25;2.05;;;;;;;;;;5045587;28;20199;-80
2021/10/31 02:15:59;;;;;;;2.08;1.98;;;;;;;;;;5048652;28;20199;-80
2021/10/31 02:18:27;;;;;;;2.13;1.92;;;;;;;;;;5048860;28;20204;-80
2021/10/31 02:20:57;;;;;;;3.17;2.85;;;;;;;;;;5044665;28;20199;-80
2021/10/31 02:23:26;;;;;;;2.60;2.22;;;;;;;;;;5049157;28;20557;-79
2021/10/31 02:25:53;;;;;;;2.85;2.55;;;;;;;;;;5058194;28;20202;-80
2021/10/31 02:28:20;;;;;;;2.70;2.50;;;;;;;;;;5041902;28;20215;-80
2021/10/31 02:30:49;;;;;;;1.90;1.75;;;;;;;;;;5046753;28;20216;-80
2021/10/31 02:33:16;;;;;;;3.78;3.00;;;;;;;;;;5048383;28;20194;-80
2021/10/31 02:35:43;;;;;;;2.78;2.58;;;;;;;;;;5048774;28;20637;-80
2021/10/31 02:38:10;;;;;;;2.72;2.50;;;;;;;;;;5047426;28;20214;-80
2021/10/31 02:40:38;;;;;;;2.53;2.33;;;;;;;;;;5048151;28;20211;-80
2021/10/31 02:43:06;;;;;;;1.98;1.85;;;;;;;;;;5047471;28;20195;-80
2021/10/31 02:45:33;;;;;;;2.00;1.80;;;;;;;;;;5050787;28;20662;-80
2021/10/31 02:48:02;;;;;;;2.13;1.92;;;;;;;;;;5051551;28;20206;-80
2021/10/31 02:50:31;;;;;;;2.80;2.47;;;;;;;;;;5049912;28;20208;-80
2021/10/31 02:53:12;;;;;;;2.65;2.45;;;;;;;;;;5049884;28;20203;-81
2021/10/31 02:55:44;;;;;;;2.50;2.30;;;;;;;;;;5052944;28;20651;-81
2021/10/31 02:58:15;;;;;;;3.10;2.28;;;;;;;;;;5051035;28;20660;-80
2021/10/31 03:00:43;;;;;;;2.53;2.33;;;;;;;;;;5049072;28;20223;-80
2021/10/31 03:03:10;;;;;;;2.47;2.28;;;;;;;;;;5049883;28;20214;-79
2021/10/31 03:05:37;;;;;;;2.47;2.03;;;;;;;;;;5054083;28;20214;-79
2021/10/31 03:08:05;;;;;;;2.10;2.00;;;;;;;;;;5046589;28;20405;-80
2021/10/31 03:10:32;;;;;;;2.67;2.47;;;;;;;;;;5048663;28;20699;-79
2021/10/31 03:13:00;;;;;;;2.55;2.35;;;;;;;;;;5044061;28;20596;-80
2021/10/31 03:15:27;;;;;;;2.30;2.10;;;;;;;;;;5051573;28;20203;-80
2021/10/31 03:17:54;;;;;;;2.38;2.17;;;;;;;;;;5051678;28;20200;-80
2021/10/31 03:20:21;;;;;;;2.25;1.70;;;;;;;;;;5049791;28;20211;-78
2021/10/31 03:22:48;;;;;;;2.20;2.00;;;;;;;;;;5053980;28;20207;-79
2021/10/31 03:25:15;;;;;;;2.85;2.20;;;;;;;;;;5050636;28;20244;-78
2021/10/31 03:27:42;;;;;;;2.10;2.00;;;;;;;;;;5049847;28;20199;-79
2021/10/31 03:30:11;;;;;;;2.20;1.95;;;;;;;;;;5054153;28;20199;-79
2021/10/31 03:32:38;;;;;;;2.00;1.90;;;;;;;;;;5061035;28;20231;-79
2021/10/31 03:35:05;;;;;;;4.03;2.47;;;;;;;;;;5051211;28;20203;-80
2021/10/31 03:37:32;;;;;;;2.78;2.53;;;;;;;;;;5049418;28;20207;-81
2021/10/31 03:40:00;;;;;;;2.80;2.03;;;;;;;;;;5057885;28;20203;-79
2021/10/31 03:42:27;;;;;;;3.20;2.22;;;;;;;;;;5045885;28;20203;-80
2021/10/31 03:44:54;;;;;;;1.83;1.73;;;;;;;;;;5050958;28;20203;-79
2021/10/31 03:47:25;;;;;;;1.90;1.80;;;;;;;;;;5050036;28;20210;-80
2021/10/31 03:49:52;;;;;;;2.00;1.80;;;;;;;;;;5061509;28;20222;-80
2021/10/31 03:52:19;;;;;;;2.90;2.38;;;;;;;;;;5044118;28;20711;-79
2021/10/31 03:54:46;;;;;;;2.72;2.30;;;;;;;;;;5052719;28;20207;-76
2021/10/31 03:57:13;;;;;;;3.40;2.50;;;;;;;;;;5047413;28;20207;-83
2021/10/31 03:59:40;;;;;;;3.28;2.58;;;;;;;;;;5062935;28;20210;-80
2021/10/31 04:02:08;;;;;;;2.33;2.13;;;;;;;;;;5073873;28;20195;-78
2021/10/31 04:04:36;;;;;;;2.58;2.40;;;;;;;;;;5052531;28;20210;-78
2021/10/31 04:07:03;;;;;;;2.50;2.30;;;;;;;;;;5047442;28;20660;-78
2021/10/31 04:09:30;;;;;;;2.20;2.00;;;;;;;;;;5049819;28;20202;-79
2021/10/31 04:11:58;;;;;;;4.72;2.80;;;;;;;;;;5050484;28;20716;-79
2021/10/31 04:14:25;;;;;;;3.20;2.83;;;;;;;;;;5059280;28;20642;-78
2021/10/31 04:16:52;;;;;;;3.15;2.92;;;;;;;;;;5048050;28;20699;-78
2021/10/31 04:19:19;;;;;;;2.78;2.50;;;;;;;;;;5056561;28;20717;-78
2021/10/31 04:21:48;;;;;;;4.45;3.15;;;;;;;;;;5045876;28;20200;-78
2021/10/31 04:24:17;;;;;;;2.50;2.30;;;;;;;;;;5054822;28;20213;-79
2021/10/31 04:26:44;;;;;;;2.33;2.13;;;;;;;;;;5047235;28;20211;-77
2021/10/31 04:29:11;;;;;;;2.70;2.50;;;;;;;;;;5052163;28;20199;-77
2021/10/31 04:31:38;;;;;;;2.50;2.13;;;;;;;;;;5055749;28;20721;-77
2021/10/31 04:34:05;;;;;;;2.90;2.58;;;;;;;;;;5049289;28;20865;-78
2021/10/31 04:36:32;;;;;;;3.30;2.83;;;;;;;;;;5047365;28;20196;-78
2021/10/31 04:39:00;;;;;;;4.55;3.72;;;;;;;;;;5047996;28;20206;-78
2021/10/31 04:41:30;;;;;;;3.33;3.03;;;;;;;;;;5047750;28;20322;-78
2021/10/31 04:43:57;;;;;;;2.95;2.75;;;;;;;;;;5050485;28;20659;-77
2021/10/31 04:46:24;;;;;;;3.05;2.38;;;;;;;;;;5058805;28;20191;-77
2021/10/31 04:48:51;;;;;;;2.92;2.72;;;;;;;;;;5046571;28;20196;-77
2021/10/31 04:51:18;;;;;;;4.95;3.80;;;;;;;;;;5047912;28;20584;-77
2021/10/31 04:53:45;;;;;;;2.65;2.45;;;;;;;;;;5048519;28;20648;-77
2021/10/31 04:56:13;;;;;;;4.07;3.20;;;;;;;;;;5048957;28;20218;-77
2021/10/31 04:58:40;;;;;;;3.22;2.97;;;;;;;;;;5045433;28;20592;-77
2021/10/31 05:01:07;;;;;;;3.28;2.97;;;;;;;;;;5046716;28;20208;-77
2021/10/31 05:03:35;;;;;;;2.67;2.47;;;;;;;;;;5061632;28;20206;-77
2021/10/31 05:06:02;;;;;;;4.43;4.07;;;;;;;;;;5049945;28;20203;-77
2021/10/31 05:08:29;;;;;;;3.63;3.30;;;;;;;;;;5053299;28;20563;-77
2021/10/31 05:10:56;;;;;;;4.35;3.50;;;;;;;;;;5050847;28;20671;-77
2021/10/31 05:13:24;;;;;;;3.00;2.80;;;;;;;;;;5049896;28;20203;-77
2021/10/31 05:15:51;;;;;;;3.70;3.40;;;;;;;;;;5046640;28;20580;-77
2021/10/31 05:18:18;;;;;;;3.20;2.90;;;;;;;;;;5045081;28;20577;-77
2021/10/31 05:20:45;;;;;;;4.78;3.75;;;;;;;;;;5051255;28;20195;-78
2021/10/31 05:23:12;;;;;;;3.55;3.25;;;;;;;;;;5048522;28;20200;-78
2021/10/31 05:25:39;;;;;;;4.10;3.80;;;;;;;;;;5046710;28;20207;-78
2021/10/31 05:28:06;;;;;;;3.33;3.03;;;;;;;;;;5047673;28;20195;-78
2021/10/31 05:30:35;;;;;;;3.55;3.28;;;;;;;;;;5049467;28;20206;-78
2021/10/31 05:33:02;;;;;;;3.95;3.55;;;;;;;;;;5045971;28;20592;-77
2021/10/31 05:35:29;;;;;;;4.30;3.90;;;;;;;;;;5049089;28;20203;-78
2021/10/31 05:37:58;;;;;;;5.43;3.85;;;;;;;;;;5046825;28;20196;-78
2021/10/31 05:40:26;;;;;;;3.90;3.55;;;;;;;;;;5047517;28;20637;-78
2021/10/31 05:42:53;;;;;;;4.45;4.05;;;;;;;;;;5045977;28;20214;-78
2021/10/31 05:45:20;;;;;;;4.40;4.00;;;;;;;;;;5047399;28;20195;-78
2021/10/31 05:47:49;;;;;;;4.40;4.00;;;;;;;;;;5049234;28;20195;-78
2021/10/31 05:50:17;;;;;;;3.95;3.65;;;;;;;;;;5046290;28;20199;-77
2021/10/31 05:52:44;;;;;;;3.47;3.17;;;;;;;;;;5045345;28;20223;-79
2021/10/31 05:55:12;;;;;;;4.85;3.80;;;;;;;;;;5045565;28;20223;-82
2021/10/31 05:57:39;;;;;;;3.55;3.22;;;;;;;;;;5047389;28;20203;-82
2021/10/31 06:00:08;;;;;;;4.35;3.78;;;;;;;;;;5048126;28;20213;-80
2021/10/31 06:02:36;;;;;;;3.75;3.45;;;;;;;;;;5048232;28;20852;-81
2021/10/31 06:05:04;;;;;;;4.47;4.07;;;;;;;;;;5046540;28;20576;-80
2021/10/31 06:07:32;;;;;;;5.05;4.35;;;;;;;;;;5046674;28;20274;-79
2021/10/31 06:09:59;;;;;;;5.28;3.80;;;;;;;;;;5047576;28;20237;-79
2021/10/31 06:12:26;;;;;;;4.90;3.97;;;;;;;;;;5047438;28;20238;-78
2021/10/31 06:14:53;;;;;;;4.90;4.07;;;;;;;;;;5045187;28;20584;-78
2021/10/31 06:17:20;;;;;;;6.10;4.35;;;;;;;;;;5047518;28;20668;-79
2021/10/31 06:19:47;;;;;;;5.15;3.58;;;;;;;;;;5046255;28;20199;-78
2021/10/31 06:22:16;;;;;;;3.30;3.00;;;;;;;;;;5046630;28;20195;-78
2021/10/31 06:24:43;;;;;;;4.05;3.75;;;;;;;;;;5051240;28;20196;-78
2021/10/31 06:27:10;;;;;;;4.38;3.97;;;;;;;;;;5047167;28;20207;-81
2021/10/31 06:29:37;;;;;;;5.13;3.60;;;;;;;;;;5047183;28;20191;-82
2021/10/31 06:32:04;;;;;;;5.10;4.03;;;;;;;;;;5050401;28;20230;-82
2021/10/31 06:34:31;;;;;;;6.78;3.70;;;;;;;;;;5051013;28;20211;-83
2021/10/31 06:36:59;;;;;;;4.93;4.53;;;;;;;;;;5042439;28;20207;-79
2021/10/31 06:39:27;;;;;;;4.55;4.15;;;;;;;;;;5042128;28;20654;-83
2021/10/31 06:41:54;;;;;;;4.97;4.47;;;;;;;;;;5045070;28;20626;-79
2021/10/31 06:44:21;;;;;;;4.38;3.92;;;;;;;;;;5049481;28;20210;-83
2021/10/31 06:46:48;;;;;;;3.95;3.55;;;;;;;;;;5050864;28;20435;-81
2021/10/31 06:49:16;;;;;;;4.32;3.92;;;;;;;;;;5048233;28;20206;-82
2021/10/31 06:51:43;;;;;;;3.88;3.55;;;;;;;;;;5045647;28;20211;-78
2021/10/31 06:54:10;;;;;;;4.30;3.70;;;;;;;;;;5039463;28;20192;-79
2021/10/31 06:56:39;;;;;;;3.90;3.60;;;;;;;;;;5038993;28;20623;-80
2021/10/31 06:59:06;;;;;;;4.10;3.70;;;;;;;;;;5037557;28;20975;-80
2021/10/31 07:01:33;;;;;;;5.18;3.70;;;;;;;;;;5038623;28;20208;-80
2021/10/31 07:04:00;;;;;;;4.20;3.90;;;;;;;;;;5037049;28;20215;-81
2021/10/31 07:06:28;;;;;;;3.80;3.30;;;;;;;;;;5041923;28;20618;-80
2021/10/31 07:08:55;;;;;;;4.00;3.70;;;;;;;;;;5040868;28;20223;-81
2021/10/31 07:11:22;;;;;;;4.53;4.13;;;;;;;;;;5040843;28;20191;-81
2021/10/31 07:13:50;;;;;;;4.10;3.80;;;;;;;;;;5039335;28;20210;-81
2021/10/31 07:16:17;;;;;;;4.40;4.00;;;;;;;;;;5040968;28;20221;-80
2021/10/31 07:18:44;;;;;;;5.00;4.47;;;;;;;;;;5043403;28;20202;-81
2021/10/31 07:21:11;;;;;;;5.47;4.95;;;;;;;;;;5041857;28;20206;-78
2021/10/31 07:23:39;;;;;;;4.43;4.07;;;;;;;;;;5042288;28;20587;-79
2021/10/31 07:26:07;;;;;;;5.50;3.80;;;;;;;;;;5039816;28;20203;-79
2021/10/31 07:28:34;;;;;;;3.45;3.15;;;;;;;;;;5047902;28;20200;-80
2021/10/31 07:31:05;;;;;;;3.25;2.95;;;;;;;;;;5049222;28;20196;-78
2021/10/31 07:33:32;;;;;;;4.30;3.90;;;;;;;;;;5053016;28;20718;-80
2021/10/31 07:35:59;;;;;;;6.38;4.32;;;;;;;;;;5050413;28;20206;-80
2021/10/31 07:38:27;;;;;;;3.85;3.50;;;;;;;;;;5051392;28;20188;-78
2021/10/31 07:40:54;;;;;;;4.43;3.42;;;;;;;;;;5050357;28;20195;-78
2021/10/31 07:43:21;;;;;;;4.25;3.95;;;;;;;;;;5051710;28;20247;-78
2021/10/31 07:45:49;;;;;;;5.10;4.03;;;;;;;;;;5051792;28;20652;-79
2021/10/31 07:48:17;;;;;;;4.07;3.20;;;;;;;;;;5052491;28;20202;-79
2021/10/31 07:50:44;;;;;;;4.35;3.25;;;;;;;;;;5050412;28;20568;-77
2021/10/31 07:53:12;;;;;;;4.97;3.38;;;;;;;;;;5048662;28;20707;-78
2021/10/31 07:55:41;;;;;;;6.32;4.35;;;;;;;;;;5051964;28;20192;-78
2021/10/31 07:58:09;;;;;;;6.55;4.00;;;;;;;;;;5049496;28;20195;-77
2021/10/31 08:00:36;;;;;;;4.28;3.97;;;;;;;;;;5047530;28;20247;-78
2021/10/31 08:03:03;;;;;;;4.55;4.00;;;;;;;;;;5044360;28;20196;-78
2021/10/31 08:05:32;;;;;;;4.38;3.45;;;;;;;;;;5050255;28;20580;-77
2021/10/31 08:07:59;;;;;;;2.83;2.55;;;;;;;;;;5049910;28;20203;-78
2021/10/31 08:10:26;;;;;;;3.28;2.97;;;;;;;;;;5048900;28;20656;-78
2021/10/31 08:12:54;;;;;;;3.78;3.38;;;;;;;;;;5043164;28;20676;-78
2021/10/31 08:15:21;;;;;;;3.90;3.50;;;;;;;;;;5055178;28;20290;-78
2021/10/31 08:17:48;;;;;;;3.55;3.05;;;;;;;;;;5058913;28;20210;-78
2021/10/31 08:20:16;;;;;;;3.92;3.42;;;;;;;;;;5055159;28;20191;-77
2021/10/31 08:22:45;;;;;;;4.18;3.20;;;;;;;;;;5046758;28;20719;-78
2021/10/31 08:25:12;;;;;;;4.03;3.63;;;;;;;;;;5052088;28;20212;-78
2021/10/31 08:27:40;;;;;;;3.22;3.03;;;;;;;;;;5050879;28;20206;-77
2021/10/31 08:30:07;;;;;;;3.67;3.22;;;;;;;;;;5056839;28;20206;-77
2021/10/31 08:32:39;;;;;;;2.92;2.63;;;;;;;;;;5051066;28;20230;-77
2021/10/31 08:35:06;;;;;;;3.47;3.17;;;;;;;;;;5052487;28;20671;-77
2021/10/31 08:37:33;;;;;;;4.22;2.63;;;;;;;;;;5045924;28;20191;-76
2021/10/31 08:40:02;;;;;;;3.28;2.97;;;;;;;;;;5047573;28;20203;-82
2021/10/31 08:42:29;;;;;;;4.38;2.60;;;;;;;;;;5042606;28;20202;-79
2021/10/31 08:44:56;;;;;;;4.15;2.55;;;;;;;;;;5047825;28;20218;-79
2021/10/31 08:47:24;;;;;;;3.58;2.88;;;;;;;;;;5051258;28;20572;-79
2021/10/31 08:49:51;;;;;;;2.50;2.30;;;;;;;;;;5047523;28;20289;-78
2021/10/31 08:52:19;;;;;;;4.82;2.78;;;;;;;;;;5048317;28;20215;-79
2021/10/31 08:54:46;;;;;;;3.08;2.50;;;;;;;;;;5045098;28;20195;-78
2021/10/31 08:57:14;;;;;;;3.67;2.30;;;;;;;;;;5046916;28;20202;-78
2021/10/31 08:59:41;;;;;;;2.38;2.17;;;;;;;;;;5047090;28;20230;-78
2021/10/31 09:02:09;;;;;;;3.08;2.03;;;;;;;;;;5047911;28;20203;-78
2021/10/31 09:04:39;;;;;;;2.95;2.75;;;;;;;;;;5046141;28;20210;-78
2021/10/31 09:07:06;;;;;;;2.40;2.20;;;;;;;;;;5046722;28;20203;-78
2021/10/31 09:09:33;;;;;;;2.40;2.20;;;;;;;;;;5045272;28;20231;-78
2021/10/31 09:12:00;;;;;;;2.90;2.13;;;;;;;;;;5042206;28;20203;-79
2021/10/31 09:14:29;;;;;;;2.63;2.30;;;;;;;;;;5046275;28;20199;-78
2021/10/31 09:16:56;;;;;;;2.45;1.73;;;;;;;;;;5047782;28;20326;-78
2021/10/31 09:19:23;;;;;;;2.22;2.05;;;;;;;;;;5051114;28;20199;-78
2021/10/31 09:21:50;;;;;;;2.80;2.40;;;;;;;;;;5046198;28;20561;-78
2021/10/31 09:24:17;;;;;;;2.22;1.98;;;;;;;;;;5048323;28;20677;-77
2021/10/31 09:26:44;;;;;;;1.92;1.83;;;;;;;;;;5047910;28;20294;-79
2021/10/31 09:29:11;;;;;;;3.55;2.33;;;;;;;;;;5047299;28;20200;-79
2021/10/31 09:31:40;;;;;;;2.75;2.10;;;;;;;;;;5048726;28;20670;-78
2021/10/31 09:34:07;;;;;;;2.30;2.10;;;;;;;;;;5047578;28;20207;-79
2021/10/31 09:36:35;;;;;;;2.47;2.28;;;;;;;;;;5046916;28;20203;-77
2021/10/31 09:39:04;;;;;;;2.10;1.60;;;;;;;;;;5045645;28;20730;-79
2021/10/31 09:41:31;;;;;;;2.40;2.00;;;;;;;;;;5046599;28;20671;-79
2021/10/31 09:44:10;;;;;;;2.22;1.85;;;;;;;;;;5048117;28;20636;-78
2021/10/31 09:46:37;;;;;;;1.75;1.65;;;;;;;;;;5047249;28;20207;-79
2021/10/31 09:49:05;;;;;;;2.25;1.70;;;;;;;;;;5047289;28;20723;-78
2021/10/31 09:51:33;;;;;;;2.22;2.03;;;;;;;;;;5046490;28;20206;-79
2021/10/31 09:54:00;;;;;;;1.90;1.50;;;;;;;;;;5049201;28;20219;-79
2021/10/31 09:56:27;;;;;;;2.33;2.13;;;;;;;;;;5041742;28;20691;-79
2021/10/31 09:58:58;;;;;;;1.45;1.35;;;;;;;;;;5040752;28;20203;-78
2021/10/31 10:01:48;;;;;;;1.60;1.40;;;;;;;;;;5045230;28;20698;-78
2021/10/31 10:04:22;;;;;;;1.40;1.30;;;;;;;;;;5055820;28;20210;-77
2021/10/31 10:06:51;;;;;;;1.90;1.67;;;;;;;;;;5058115;28;20201;-79
2021/10/31 10:09:18;;;;;;;2.67;1.60;;;;;;;;;;5042630;28;20233;-78
2021/10/31 10:11:46;;;;;;;1.90;1.77;;;;;;;;;;5038597;28;20207;-80
2021/10/31 10:14:17;;;;;;;1.63;1.52;;;;;;;;;;5046690;28;20223;-79
2021/10/31 10:16:44;;;;;;;1.85;1.60;;;;;;;;;;5046690;28;20207;-79
2021/10/31 10:19:15;;;;;;;4.50;1.50;;;;;;;;;;5052235;28;20678;-78
2021/10/31 10:21:43;;;;;;;1.23;1.13;;;;;;;;;;5042980;28;20563;-78
2021/10/31 10:24:12;;;;;;;2.10;1.60;;;;;;;;;;5045111;28;20706;-78
2021/10/31 10:26:41;;;;;;;1.52;1.20;;;;;;;;;;5044495;28;20199;-78
2021/10/31 10:29:12;;;;;;;2.53;1.80;;;;;;;;;;5050754;28;20199;-81
2021/10/31 10:31:40;;;;;;;1.60;1.50;;;;;;;;;;5053715;28;20207;-78
2021/10/31 10:34:07;;;;;;;3.17;1.50;;;;;;;;;;5046919;28;20216;-78
2021/10/31 10:36:38;;;;;;;2.20;1.60;;;;;;;;;;5044659;28;20210;-78
2021/10/31 10:39:07;;;;;;;2.50;1.60;;;;;;;;;;5046775;28;20199;-79
2021/10/31 10:41:38;;;;;;;1.70;1.58;;;;;;;;;;5045222;28;20200;-78
2021/10/31 10:44:16;;;;;;;2.22;1.40;;;;;;;;;;5048949;28;20195;-79
2021/10/31 10:46:43;;;;;;;1.58;1.40;;;;;;;;;;5048040;28;20199;-78
2021/10/31 10:49:11;;;;;;;1.60;1.40;;;;;;;;;;5047795;28;20738;-78
2021/10/31 10:51:39;;;;;;;1.70;1.60;;;;;;;;;;5050347;28;20210;-81
2021/10/31 10:54:13;;;;;;;4.55;1.65;;;;;;;;;;5050238;28;20588;-81
2021/10/31 10:56:58;;;;;;;1.45;1.35;;;;;;;;;;5050317;28;20209;-80
2021/10/31 10:59:25;;;;;;;1.48;1.38;;;;;;;;;;5052404;28;20222;-80
2021/10/31 11:02:07;;;;;;;1.38;1.27;;;;;;;;;;5052467;28;20195;-81
2021/10/31 11:04:35;;;;;;;1.73;1.63;;;;;;;;;;5048822;28;20203;-81
2021/10/31 11:07:02;;;;;;;2.25;1.58;;;;;;;;;;5053510;28;20207;-82
2021/10/31 11:09:36;;;;;;;1.92;1.65;;;;;;;;;;5053841;28;20560;-81
2021/10/31 11:12:21;;;;;;;1.70;1.60;;;;;;;;;;5046714;28;20203;-81
2021/10/31 11:14:49;;;;;;;2.05;1.80;;;;;;;;;;5040976;28;20718;-81
2021/10/31 11:17:17;;;;;;;1.38;1.27;;;;;;;;;;5059901;28;20198;-81
2021/10/31 11:19:44;;;;;;;1.58;1.48;;;;;;;;;;5059920;28;20191;-79
2021/10/31 11:22:11;;;;;;;1.60;1.50;;;;;;;;;;5060701;28;20196;-78
2021/10/31 11:24:40;;;;;;;1.70;1.48;;;;;;;;;;5070666;28;20199;-78
2021/10/31 11:27:08;;;;;;;1.23;1.13;;;;;;;;;;5067480;28;20196;-77
2021/10/31 11:29:35;;;;;;;2.08;1.67;;;;;;;;;;5059343;28;20720;-80
2021/10/31 11:32:03;;;;;;;5.65;1.80;;;;;;;;;;5052445;28;20196;-78
2021/10/31 11:34:30;;;;;;;1.40;1.30;;;;;;;;;;5059471;28;20687;-80
2021/10/31 11:36:58;;;;;;;1.50;1.40;;;;;;;;;;5054239;28;20200;-80
2021/10/31 11:39:25;;;;;;;1.90;1.45;;;;;;;;;;5046053;28;20212;-79
2021/10/31 11:41:56;;;;;;;1.90;1.40;;;;;;;;;;5047437;28;20591;-79
2021/10/31 11:44:29;;;;;;;4.13;1.83;;;;;;;;;;5055317;28;20195;-78
2021/10/31 11:46:56;;;;;;;1.50;1.40;;;;;;;;;;5057336;28;20679;-76
2021/10/31 11:49:23;;;;;;;1.63;1.50;;;;;;;;;;5059903;28;20203;-77
2021/10/31 11:51:54;;;;;;;1.85;1.50;;;;;;;;;;5055495;28;20204;-78
2021/10/31 11:54:22;;;;;;;1.85;1.38;;;;;;;;;;5043821;28;20262;-77
2021/10/31 11:56:52;;;;;;;1.40;1.30;;;;;;;;;;5057290;28;20605;-77
2021/10/31 11:59:21;;;;;;;3.88;1.70;;;;;;;;;;5058318;28;20250;-78
2021/10/31 12:01:49;;;;;;;1.50;1.40;;;;;;;;;;5050573;28;20195;-78
2021/10/31 12:07:31;;;;;;;1.73;1.50;;;;;;;;;;5047784;28;20223;-77
2021/10/31 12:09:58;;;;;;;1.45;1.35;;;;;;;;;;5055789;28;20568;-76
2021/10/31 12:12:25;;;;;;;1.60;1.38;;;;;;;;;;5052703;28;20207;-77
2021/10/31 12:14:55;;;;;;;1.60;1.30;;;;;;;;;;5052550;28;20219;-78
2021/10/31 12:17:23;;;;;;;1.38;1.15;;;;;;;;;;5061339;28;20196;-77
2021/10/31 12:19:52;;;;;;;1.60;1.35;;;;;;;;;;5052107;28;20192;-76
2021/10/31 12:22:20;;;;;;;2.08;1.60;;;;;;;;;;5044023;28;20575;-78
2021/10/31 12:24:49;;;;;;;1.33;1.13;;;;;;;;;;5066339;28;20419;-78
2021/10/31 12:27:17;;;;;;;1.55;1.45;;;;;;;;;;5068054;28;20203;-78
2021/10/31 12:30:05;;;;;;;2.35;1.17;;;;;;;;;;5060729;28;20204;-79
2021/10/31 12:32:41;;;;;;;3.25;1.35;;;;;;;;;;5059210;28;20238;-78
2021/10/31 12:35:28;;;;;;;1.40;1.30;;;;;;;;;;5053874;28;20215;-79
2021/10/31 12:37:55;;;;;;;1.55;1.10;;;;;;;;;;5057136;28;20399;-77
2021/10/31 12:40:23;;;;;;;4.32;1.90;;;;;;;;;;5058054;28;20208;-78
2021/10/31 12:42:54;;;;;;;1.30;1.20;;;;;;;;;;5058302;28;20200;-78
2021/10/31 12:45:23;;;;;;;1.50;1.40;;;;;;;;;;5058165;28;20223;-79
2021/10/31 12:47:54;;;;;;;1.80;1.42;;;;;;;;;;5054566;28;20200;-79
2021/10/31 12:50:22;;;;;;;1.60;1.10;;;;;;;;;;5050766;28;20295;-78
2021/10/31 12:52:56;;;;;;;1.92;1.33;;;;;;;;;;5059740;28;20199;-79
2021/10/31 12:55:23;;;;;;;1.80;1.50;;;;;;;;;;5052682;28;20215;-77
2021/10/31 12:57:51;;;;;;;2.20;1.30;;;;;;;;;;5052790;28;20207;-77
2021/10/31 13:00:19;;;;;;;2.15;1.95;;;;;;;;;;5054205;28;20220;-78
2021/10/31 13:02:50;;;;;;;1.20;1.10;;;;;;;;;;5056363;28;20218;-78
2021/10/31 13:05:23;;;;;;;2.60;1.52;;;;;;;;;;5054498;28;20722;-78
2021/10/31 13:07:51;;;;;;;1.58;1.40;;;;;;;;;;5064167;28;20620;-78
2021/10/31 13:10:20;;;;;;;1.30;1.10;;;;;;;;;;5057035;28;20204;-77
2021/10/31 13:12:48;;;;;;;1.10;1.00;;;;;;;;;;5046509;28;20195;-78
2021/10/31 13:15:16;;;;;;;1.10;1.00;;;;;;;;;;5046196;28;20227;-78
2021/10/31 13:17:45;;;;;;;1.30;1.10;;;;;;;;;;5044330;28;20218;-78
2021/10/31 13:20:16;;;;;;;1.35;1.13;;;;;;;;;;5046905;28;20203;-77
2021/10/31 13:22:47;;;;;;;1.40;1.10;;;;;;;;;;5044627;28;20644;-77
2021/10/31 13:25:15;;;;;;;2.63;1.23;;;;;;;;;;5052937;28;20576;-78
2021/10/31 13:27:43;;;;;;;1.60;1.00;;;;;;;;;;5052085;28;20199;-79
2021/10/31 13:30:11;;;;;;;1.33;1.17;;;;;;;;;;5052182;28;20228;-77
2021/10/31 13:32:38;;;;;;;1.25;1.00;;;;;;;;;;5054814;28;20209;-78
2021/10/31 13:35:06;;;;;;;1.42;1.10;;;;;;;;;;5051118;28;20993;-77
2021/10/31 13:37:33;;;;;;;2.22;1.20;;;;;;;;;;5053681;28;20212;-77
2021/10/31 13:40:02;;;;;;;1.25;1.10;;;;;;;;;;5053652;28;20206;-76
2021/10/31 13:42:31;;;;;;;1.40;1.20;;;;;;;;;;5047033;28;20195;-77
2021/10/31 13:44:58;;;;;;;2.38;1.20;;;;;;;;;;5049866;28;20545;-77
2021/10/31 13:47:32;;;;;;;1.10;0.98;;;;;;;;;;5050263;28;20195;-77
2021/10/31 13:50:01;;;;;;;1.50;1.40;;;;;;;;;;5048592;28;20207;-77
2021/10/31 13:52:29;;;;;;;1.10;1.00;;;;;;;;;;5057789;28;20195;-77
2021/10/31 13:54:59;;;;;;;2.75;2.33;;;;;;;;;;5055288;28;20250;-76
2021/10/31 13:57:29;;;;;;;2.10;1.42;;;;;;;;;;5049971;28;20311;-78
2021/10/31 13:59:57;;;;;;;1.20;1.10;;;;;;;;;;5056221;28;20316;-78
2021/10/31 14:02:25;;;;;;;1.35;1.25;;;;;;;;;;5056385;28;20522;-78
2021/10/31 14:05:04;;;;;;;2.60;1.00;;;;;;;;;;5054982;28;20200;-76
2021/10/31 14:07:34;;;;;;;1.33;1.05;;;;;;;;;;5055330;28;20422;-78
2021/10/31 14:10:01;;;;;;;1.30;1.20;;;;;;;;;;5042327;28;20711;-75
2021/10/31 14:12:29;;;;;;;1.27;1.10;;;;;;;;;;5045330;28;20203;-77
2021/10/31 14:15:05;;;;;;;1.35;1.02;;;;;;;;;;5044371;28;20219;-76
2021/10/31 14:17:33;;;;;;;2.83;1.52;;;;;;;;;;5043915;28;20664;-76
2021/10/31 14:20:00;;;;;;;1.20;1.10;;;;;;;;;;5035626;28;20667;-76
2021/10/31 14:22:30;;;;;;;2.00;1.48;;;;;;;;;;5038683;28;20202;-77
2021/10/31 14:24:58;;;;;;;3.75;1.60;;;;;;;;;;5039751;28;20668;-78
2021/10/31 14:27:27;;;;;;;2.60;1.48;;;;;;;;;;5037146;28;20200;-76
2021/10/31 14:30:12;;;;;;;3.55;1.33;;;;;;;;;;5040694;28;20234;-76
2021/10/31 14:32:46;;;;;;;1.80;1.20;;;;;;;;;;5042462;28;20648;-76
2021/10/31 14:35:13;;;;;;;3.38;1.27;;;;;;;;;;5039698;28;20219;-77
2021/10/31 14:37:40;;;;;;;2.90;1.60;;;;;;;;;;5039451;28;20195;-76
2021/10/31 14:40:22;;;;;;;1.80;1.33;;;;;;;;;;5037468;28;20200;-77
2021/10/31 14:42:49;;;;;;;1.55;1.42;;;;;;;;;;5039175;28;20207;-77
2021/10/31 14:45:30;;;;;;;1.83;1.50;;;;;;;;;;5038329;28;20214;-76
2021/10/31 14:47:57;;;;;;;2.55;1.40;;;;;;;;;;5040128;28;20218;-76
2021/10/31 14:50:24;;;;;;;1.38;1.15;;;;;;;;;;5040807;28;20203;-78
2021/10/31 14:52:51;;;;;;;2.00;1.20;;;;;;;;;;5047103;28;21933;-77
2021/10/31 14:55:18;;;;;;;2.00;1.38;;;;;;;;;;5050688;28;20223;-78
2021/10/31 14:57:49;;;;;;;1.85;1.75;;;;;;;;;;5046438;28;20207;-76